Time;durP1;ratioP1;P1;durP2;ratioP2;P2;SDS_P1;SDS_P2;PMS_P1;PMS_P2;Temp;Humidity;BMP_temperature;BMP_pressure;BME280_temperature;BME280_humidity;BME280_pressure;Samples;Min_cycle;Max_cycle;Signal;HPM_P1;HPM_P2
2021/12/23 00:00:19;;;;;;;47.07;18.60;;;;;;;;;;5010202;28;20452;-83
2021/12/23 00:02:46;;;;;;;55.37;17.53;;;;;;;;;;5010855;28;20493;-83
2021/12/23 00:05:14;;;;;;;50.97;18.60;;;;;;;;;;5012791;28;20505;-84
2021/12/23 00:07:41;;;;;;;55.33;20.13;;;;;;;;;;5010421;28;20467;-84
2021/12/23 00:10:09;;;;;;;51.23;19.53;;;;;;;;;;5010869;28;20527;-84
2021/12/23 00:12:38;;;;;;;50.47;19.10;;;;;;;;;;5005640;28;20574;-84
2021/12/23 00:15:15;;;;;;;51.43;18.83;;;;;;;;;;5007707;28;20499;-84
2021/12/23 00:17:59;;;;;;;46.77;18.33;;;;;;;;;;5005367;28;20482;-84
2021/12/23 00:23:28;;;;;;;45.83;18.27;;;;;;;;;;5009551;28;20515;-84
2021/12/23 00:26:00;;;;;;;51.07;20.53;;;;;;;;;;5012166;28;20447;-83
2021/12/23 00:28:28;;;;;;;56.80;19.83;;;;;;;;;;5013274;28;20483;-84
2021/12/23 00:30:57;;;;;;;53.93;19.27;;;;;;;;;;5007964;28;21077;-83
2021/12/23 00:33:24;;;;;;;54.37;19.37;;;;;;;;;;5013706;28;20510;-84
2021/12/23 00:35:53;;;;;;;51.37;20.23;;;;;;;;;;5013663;28;20532;-83
2021/12/23 00:38:24;;;;;;;43.77;18.17;;;;;;;;;;5011230;28;20902;-83
2021/12/23 00:40:52;;;;;;;52.27;19.63;;;;;;;;;;5007967;28;20877;-83
2021/12/23 00:43:19;;;;;;;52.80;19.90;;;;;;;;;;5003753;28;20459;-85
2021/12/23 00:45:47;;;;;;;47.47;18.00;;;;;;;;;;5008271;28;20904;-83
2021/12/23 00:48:15;;;;;;;47.73;19.27;;;;;;;;;;5006022;28;20480;-82
2021/12/23 00:50:43;;;;;;;51.23;18.73;;;;;;;;;;5009949;28;20949;-83
2021/12/23 00:53:11;;;;;;;45.77;17.87;;;;;;;;;;5011228;28;20563;-82
2021/12/23 00:55:38;;;;;;;45.37;18.30;;;;;;;;;;5006768;28;20455;-82
2021/12/23 00:58:05;;;;;;;51.00;18.83;;;;;;;;;;5006252;28;20617;-83
2021/12/23 01:00:33;;;;;;;45.57;17.17;;;;;;;;;;5006854;28;20459;-83
2021/12/23 01:03:01;;;;;;;45.33;17.70;;;;;;;;;;5008695;28;20495;-84
2021/12/23 01:05:29;;;;;;;53.87;18.13;;;;;;;;;;5010603;28;20460;-84
2021/12/23 01:07:57;;;;;;;48.20;17.73;;;;;;;;;;5007552;28;20558;-82
2021/12/23 01:10:24;;;;;;;54.97;17.50;;;;;;;;;;5006395;28;21044;-84
2021/12/23 01:12:56;;;;;;;43.17;17.43;;;;;;;;;;5011794;28;20507;-84
2021/12/23 01:15:57;;;;;;;44.90;17.23;;;;;;;;;;5004214;28;20479;-83
2021/12/23 01:18:25;;;;;;;38.37;15.33;;;;;;;;;;5003285;28;20483;-82
2021/12/23 01:21:03;;;;;;;43.20;17.13;;;;;;;;;;5003451;28;20455;-84
2021/12/23 01:23:30;;;;;;;47.10;16.53;;;;;;;;;;5006465;28;20451;-84
2021/12/23 01:25:57;;;;;;;45.33;16.77;;;;;;;;;;5009721;28;20455;-83
2021/12/23 01:28:26;;;;;;;43.17;17.03;;;;;;;;;;5010152;28;20579;-84
2021/12/23 01:30:53;;;;;;;44.07;15.77;;;;;;;;;;5015201;28;20518;-83
2021/12/23 01:33:22;;;;;;;46.63;16.40;;;;;;;;;;5015022;28;20494;-83
2021/12/23 01:35:50;;;;;;;42.63;16.67;;;;;;;;;;5009753;28;20527;-84
2021/12/23 01:38:19;;;;;;;36.93;15.30;;;;;;;;;;5011439;28;20483;-84
2021/12/23 01:40:46;;;;;;;40.90;15.50;;;;;;;;;;5010475;28;20555;-83
2021/12/23 01:43:13;;;;;;;41.93;16.37;;;;;;;;;;5014866;28;20460;-83
2021/12/23 01:45:44;;;;;;;47.87;17.27;;;;;;;;;;5009226;28;20547;-84
2021/12/23 01:48:12;;;;;;;49.73;16.97;;;;;;;;;;5009358;28;20475;-82
2021/12/23 01:50:39;;;;;;;46.10;16.37;;;;;;;;;;5008288;28;20503;-84
2021/12/23 01:53:07;;;;;;;37.40;15.70;;;;;;;;;;5007335;28;20489;-83
2021/12/23 01:55:36;;;;;;;42.07;16.23;;;;;;;;;;5010949;28;20543;-84
2021/12/23 01:58:04;;;;;;;40.60;15.10;;;;;;;;;;5007346;28;20501;-84
2021/12/23 02:00:34;;;;;;;43.53;16.03;;;;;;;;;;5013532;28;20554;-83
2021/12/23 02:03:01;;;;;;;41.53;15.77;;;;;;;;;;5010040;28;20447;-84
2021/12/23 02:05:30;;;;;;;35.17;15.07;;;;;;;;;;5005025;28;20458;-84
2021/12/23 02:07:57;;;;;;;44.83;15.17;;;;;;;;;;5005791;28;20491;-83
2021/12/23 02:10:24;;;;;;;37.07;15.57;;;;;;;;;;5010124;28;20459;-83
2021/12/23 02:12:53;;;;;;;36.73;15.17;;;;;;;;;;5012528;28;20537;-85
2021/12/23 02:15:20;;;;;;;42.20;17.53;;;;;;;;;;5006253;28;20502;-85
2021/12/23 02:17:48;;;;;;;44.10;16.63;;;;;;;;;;5006876;28;20613;-83
2021/12/23 02:20:18;;;;;;;40.30;15.90;;;;;;;;;;5008452;28;20554;-84
2021/12/23 02:22:46;;;;;;;43.23;15.70;;;;;;;;;;5006662;28;20498;-84
2021/12/23 02:25:14;;;;;;;44.73;15.97;;;;;;;;;;5003823;28;20494;-85
2021/12/23 02:27:41;;;;;;;46.93;16.33;;;;;;;;;;5006803;28;20475;-82
2021/12/23 02:30:10;;;;;;;41.00;15.57;;;;;;;;;;5008947;28;20509;-85
2021/12/23 02:32:38;;;;;;;39.03;14.83;;;;;;;;;;5005851;28;20574;-84
2021/12/23 02:35:05;;;;;;;40.57;16.20;;;;;;;;;;5009488;28;20561;-82
2021/12/23 02:37:34;;;;;;;49.67;17.23;;;;;;;;;;5013151;28;21063;-84
2021/12/23 02:40:01;;;;;;;41.57;15.53;;;;;;;;;;5017879;28;20799;-83
2021/12/23 02:42:28;;;;;;;43.67;16.67;;;;;;;;;;5011551;28;20985;-84
2021/12/23 02:44:56;;;;;;;44.33;16.17;;;;;;;;;;5010012;28;20508;-83
2021/12/23 02:47:23;;;;;;;41.33;16.83;;;;;;;;;;5013630;28;20933;-83
2021/12/23 02:49:50;;;;;;;42.17;15.70;;;;;;;;;;5022693;28;20482;-82
2021/12/23 02:52:18;;;;;;;39.87;15.70;;;;;;;;;;5012634;28;20520;-84
2021/12/23 02:54:54;;;;;;;38.97;15.23;;;;;;;;;;5007278;28;20544;-82
2021/12/23 02:57:22;;;;;;;40.20;14.97;;;;;;;;;;5009411;28;20545;-83
2021/12/23 02:59:50;;;;;;;37.40;14.57;;;;;;;;;;5009239;28;20490;-81
2021/12/23 03:02:17;;;;;;;41.87;15.57;;;;;;;;;;5012156;28;21186;-84
2021/12/23 03:04:44;;;;;;;39.43;16.33;;;;;;;;;;5008771;28;20949;-84
2021/12/23 03:07:12;;;;;;;38.20;14.77;;;;;;;;;;5009564;28;21068;-84
2021/12/23 03:09:39;;;;;;;38.90;15.53;;;;;;;;;;5007899;28;20890;-84
2021/12/23 03:12:08;;;;;;;41.10;15.07;;;;;;;;;;5007880;28;20562;-85
2021/12/23 03:14:35;;;;;;;39.87;15.87;;;;;;;;;;5009461;28;20909;-85
2021/12/23 03:17:02;;;;;;;35.73;15.20;;;;;;;;;;5008061;28;20509;-84
2021/12/23 03:19:30;;;;;;;43.27;14.90;;;;;;;;;;5007161;28;20505;-83
2021/12/23 03:21:57;;;;;;;35.97;14.27;;;;;;;;;;5008834;28;20573;-84
2021/12/23 03:24:24;;;;;;;38.50;14.77;;;;;;;;;;5009102;28;20471;-85
2021/12/23 03:26:52;;;;;;;36.97;14.23;;;;;;;;;;5011387;28;20553;-84
2021/12/23 03:29:20;;;;;;;37.30;14.97;;;;;;;;;;5008347;28;20544;-83
2021/12/23 03:31:47;;;;;;;43.57;15.80;;;;;;;;;;5007772;28;20483;-83
2021/12/23 03:34:15;;;;;;;38.90;15.70;;;;;;;;;;5007747;28;20575;-83
2021/12/23 03:36:42;;;;;;;35.90;15.03;;;;;;;;;;5009593;28;20938;-84
2021/12/23 03:39:09;;;;;;;42.80;15.70;;;;;;;;;;5006454;28;20522;-82
2021/12/23 03:41:37;;;;;;;40.83;15.93;;;;;;;;;;5005482;28;20543;-83
2021/12/23 03:44:04;;;;;;;42.53;15.23;;;;;;;;;;5011057;28;20460;-85
2021/12/23 03:46:37;;;;;;;40.00;16.50;;;;;;;;;;5007271;28;21001;-84
2021/12/23 03:49:04;;;;;;;46.23;16.63;;;;;;;;;;5008015;28;20592;-83
2021/12/23 03:51:31;;;;;;;39.90;16.13;;;;;;;;;;5011176;28;20455;-82
2021/12/23 03:53:59;;;;;;;41.60;16.23;;;;;;;;;;5006921;28;20487;-83
2021/12/23 03:56:26;;;;;;;41.30;15.70;;;;;;;;;;5010093;28;20498;-84
2021/12/23 03:58:55;;;;;;;37.77;14.33;;;;;;;;;;5008238;28;20550;-84
2021/12/23 04:01:22;;;;;;;36.87;14.63;;;;;;;;;;5012017;28;20463;-84
2021/12/23 04:03:51;;;;;;;37.50;14.37;;;;;;;;;;5016470;28;20546;-83
2021/12/23 04:06:19;;;;;;;41.03;14.33;;;;;;;;;;5008389;28;20459;-84
2021/12/23 04:08:46;;;;;;;41.23;16.27;;;;;;;;;;5008332;28;20483;-83
2021/12/23 04:11:13;;;;;;;40.90;15.73;;;;;;;;;;5008674;28;20495;-82
2021/12/23 04:13:41;;;;;;;43.70;16.33;;;;;;;;;;5008386;28;20574;-83
2021/12/23 04:16:08;;;;;;;35.80;15.87;;;;;;;;;;5008420;28;20503;-83
2021/12/23 04:18:36;;;;;;;43.30;16.03;;;;;;;;;;5008284;28;20948;-82
2021/12/23 04:21:04;;;;;;;37.17;15.53;;;;;;;;;;5006905;28;20551;-84
2021/12/23 04:23:33;;;;;;;40.70;15.57;;;;;;;;;;5007140;28;20523;-84
2021/12/23 04:26:01;;;;;;;48.20;16.50;;;;;;;;;;5008963;28;20462;-81
2021/12/23 04:28:29;;;;;;;36.17;15.90;;;;;;;;;;5013271;28;20526;-82
2021/12/23 04:30:56;;;;;;;33.27;15.33;;;;;;;;;;5010671;28;20467;-83
2021/12/23 04:33:23;;;;;;;45.17;16.90;;;;;;;;;;5006906;28;20930;-85
2021/12/23 04:35:51;;;;;;;44.73;17.17;;;;;;;;;;5006131;28;20495;-83
2021/12/23 04:38:20;;;;;;;45.50;17.20;;;;;;;;;;5005332;28;20518;-85
2021/12/23 04:40:47;;;;;;;45.03;18.00;;;;;;;;;;5007773;28;20522;-84
2021/12/23 04:43:14;;;;;;;39.93;16.33;;;;;;;;;;5005944;28;20470;-84
2021/12/23 04:45:42;;;;;;;45.17;17.57;;;;;;;;;;5003255;28;21056;-83
2021/12/23 04:48:09;;;;;;;46.70;18.80;;;;;;;;;;5019627;28;20471;-83
2021/12/23 04:50:36;;;;;;;46.40;17.73;;;;;;;;;;5016726;28;20505;-81
2021/12/23 04:53:03;;;;;;;43.40;19.53;;;;;;;;;;5010792;28;20487;-83
2021/12/23 04:55:32;;;;;;;55.03;21.20;;;;;;;;;;5024057;28;20447;-83
2021/12/23 04:57:59;;;;;;;41.90;16.10;;;;;;;;;;5022222;28;20980;-81
2021/12/23 05:00:28;;;;;;;48.00;17.30;;;;;;;;;;5025803;28;20460;-79
2021/12/23 05:02:55;;;;;;;48.97;18.50;;;;;;;;;;5024574;28;20465;-81
2021/12/23 05:05:22;;;;;;;45.47;18.00;;;;;;;;;;5024789;28;20459;-81
2021/12/23 05:07:49;;;;;;;51.07;19.73;;;;;;;;;;5025090;28;20486;-83
2021/12/23 05:10:19;;;;;;;47.77;16.83;;;;;;;;;;5024320;28;20463;-80
2021/12/23 05:12:48;;;;;;;48.13;16.47;;;;;;;;;;5013845;28;20982;-82
2021/12/23 05:15:16;;;;;;;45.10;17.53;;;;;;;;;;5008901;28;20487;-82
2021/12/23 05:17:43;;;;;;;42.67;17.93;;;;;;;;;;5009842;28;20514;-83
2021/12/23 05:20:11;;;;;;;42.30;17.33;;;;;;;;;;5011852;28;20455;-85
2021/12/23 05:22:39;;;;;;;41.47;16.90;;;;;;;;;;5010928;28;20999;-85
2021/12/23 05:25:07;;;;;;;48.70;20.70;;;;;;;;;;5009114;28;20483;-85
2021/12/23 05:27:34;;;;;;;47.97;18.43;;;;;;;;;;5015525;28;20566;-85
2021/12/23 05:30:07;;;;;;;45.37;18.03;;;;;;;;;;5011653;28;20447;-85
2021/12/23 05:32:34;;;;;;;47.17;18.47;;;;;;;;;;5009617;28;20528;-85
2021/12/23 05:35:01;;;;;;;50.03;18.40;;;;;;;;;;5010736;28;20921;-84
2021/12/23 05:37:28;;;;;;;42.87;17.03;;;;;;;;;;5009292;28;20519;-85
2021/12/23 05:39:56;;;;;;;43.37;17.93;;;;;;;;;;5006359;28;20494;-85
2021/12/23 05:42:23;;;;;;;43.47;17.30;;;;;;;;;;5007868;28;20487;-85
2021/12/23 05:44:50;;;;;;;41.20;17.87;;;;;;;;;;5008517;28;20842;-84
2021/12/23 05:47:18;;;;;;;45.37;17.17;;;;;;;;;;5010627;28;20514;-85
2021/12/23 05:49:46;;;;;;;46.90;18.83;;;;;;;;;;5007473;28;20551;-86
2021/12/23 05:52:13;;;;;;;47.00;18.00;;;;;;;;;;5007166;28;20583;-86
2021/12/23 05:54:40;;;;;;;47.73;18.50;;;;;;;;;;5003403;28;20590;-86
2021/12/23 05:57:08;;;;;;;54.23;19.20;;;;;;;;;;5007385;28;20503;-85
2021/12/23 05:59:36;;;;;;;47.77;18.70;;;;;;;;;;5007379;28;20479;-86
2021/12/23 06:02:04;;;;;;;55.53;20.17;;;;;;;;;;5006750;28;20491;-84
2021/12/23 06:04:33;;;;;;;43.47;18.97;;;;;;;;;;5005171;28;20451;-84
2021/12/23 06:07:00;;;;;;;49.63;19.40;;;;;;;;;;5008255;28;20487;-85
2021/12/23 06:09:27;;;;;;;55.10;20.27;;;;;;;;;;5007083;28;20472;-85
2021/12/23 06:11:55;;;;;;;118.10;33.93;;;;;;;;;;5008820;28;20487;-85
2021/12/23 06:14:22;;;;;;;81.77;26.10;;;;;;;;;;5006481;28;20818;-85
2021/12/23 06:16:49;;;;;;;76.40;25.23;;;;;;;;;;5007472;28;20908;-86
2021/12/23 06:19:16;;;;;;;82.23;25.60;;;;;;;;;;5005811;28;20495;-85
2021/12/23 06:21:45;;;;;;;83.43;28.30;;;;;;;;;;5005216;28;20664;-85
2021/12/23 06:24:12;;;;;;;55.37;21.07;;;;;;;;;;5006817;28;20490;-86
2021/12/23 06:26:39;;;;;;;53.83;20.53;;;;;;;;;;5007565;28;20901;-86
2021/12/23 06:29:07;;;;;;;49.93;20.10;;;;;;;;;;5004779;28;20551;-85
2021/12/23 06:31:34;;;;;;;50.10;20.40;;;;;;;;;;5007927;28;20976;-85
2021/12/23 06:34:01;;;;;;;52.90;21.33;;;;;;;;;;5010708;28;20646;-87
2021/12/23 06:36:28;;;;;;;50.77;20.60;;;;;;;;;;5011476;28;21053;-85
2021/12/23 06:38:57;;;;;;;44.30;19.10;;;;;;;;;;5008455;28;20555;-85
2021/12/23 06:41:24;;;;;;;51.43;20.63;;;;;;;;;;5008059;28;20901;-85
2021/12/23 06:43:51;;;;;;;56.73;20.97;;;;;;;;;;5010167;28;20521;-85
2021/12/23 06:46:18;;;;;;;52.43;20.90;;;;;;;;;;5014287;28;20463;-87
2021/12/23 06:48:45;;;;;;;50.70;20.53;;;;;;;;;;5014590;28;20577;-86
2021/12/23 06:51:13;;;;;;;53.77;20.77;;;;;;;;;;5013825;28;20543;-85
2021/12/23 06:53:40;;;;;;;49.13;20.37;;;;;;;;;;5011056;28;20542;-85
2021/12/23 06:56:11;;;;;;;55.27;20.77;;;;;;;;;;5012158;28;20458;-85
2021/12/23 06:58:39;;;;;;;53.63;20.77;;;;;;;;;;5016578;28;20487;-86
2021/12/23 07:01:07;;;;;;;53.73;22.37;;;;;;;;;;5015085;28;20966;-85
2021/12/23 07:03:52;;;;;;;54.13;19.83;;;;;;;;;;5019174;28;20813;-85
2021/12/23 07:06:23;;;;;;;47.70;19.53;;;;;;;;;;5007103;28;20989;-85
2021/12/23 07:08:50;;;;;;;61.90;22.27;;;;;;;;;;5011446;28;20817;-86
2021/12/23 07:11:19;;;;;;;48.50;19.80;;;;;;;;;;5008744;28;20536;-87
2021/12/23 07:13:46;;;;;;;51.87;20.67;;;;;;;;;;5013017;28;20491;-85
2021/12/23 07:16:13;;;;;;;55.33;21.20;;;;;;;;;;5015722;28;20498;-85
2021/12/23 07:18:40;;;;;;;52.07;21.83;;;;;;;;;;5009894;28;20487;-85
2021/12/23 07:21:08;;;;;;;51.07;19.50;;;;;;;;;;5012001;28;21224;-85
2021/12/23 07:23:35;;;;;;;48.27;19.43;;;;;;;;;;5013018;28;20467;-86
2021/12/23 07:26:02;;;;;;;58.30;21.70;;;;;;;;;;5010220;28;20812;-87
2021/12/23 07:28:31;;;;;;;53.47;21.00;;;;;;;;;;5013029;28;20534;-86
2021/12/23 07:30:58;;;;;;;57.57;22.27;;;;;;;;;;5013717;28;20455;-86
2021/12/23 07:33:25;;;;;;;52.83;21.23;;;;;;;;;;5008397;28;20554;-85
2021/12/23 07:35:52;;;;;;;50.00;21.53;;;;;;;;;;5009582;28;20487;-85
2021/12/23 07:38:19;;;;;;;52.17;22.37;;;;;;;;;;5012165;28;20578;-85
2021/12/23 07:40:47;;;;;;;49.50;20.67;;;;;;;;;;5013229;28;20862;-85
2021/12/23 07:43:31;;;;;;;63.77;22.50;;;;;;;;;;5008787;28;20541;-87
2021/12/23 07:46:00;;;;;;;58.23;21.87;;;;;;;;;;5005967;28;20463;-86
2021/12/23 07:48:28;;;;;;;59.50;23.70;;;;;;;;;;5010833;28;20575;-85
2021/12/23 07:50:55;;;;;;;55.20;21.37;;;;;;;;;;5011921;28;20515;-86
2021/12/23 07:53:22;;;;;;;56.33;21.57;;;;;;;;;;5013966;28;20498;-85
2021/12/23 07:55:50;;;;;;;54.87;21.13;;;;;;;;;;5015216;28;20480;-86
2021/12/23 07:58:17;;;;;;;61.43;23.07;;;;;;;;;;5011591;28;20565;-85
2021/12/23 08:00:44;;;;;;;55.03;22.83;;;;;;;;;;5011725;28;20471;-85
2021/12/23 08:03:13;;;;;;;61.20;24.27;;;;;;;;;;5016855;28;20558;-85
2021/12/23 08:05:41;;;;;;;56.10;21.03;;;;;;;;;;5008942;28;20459;-87
2021/12/23 08:08:09;;;;;;;60.30;22.10;;;;;;;;;;5009939;28;20581;-85
2021/12/23 08:10:36;;;;;;;58.93;22.57;;;;;;;;;;5014551;28;20505;-86
2021/12/23 08:13:03;;;;;;;57.80;22.07;;;;;;;;;;5008273;28;20480;-86
2021/12/23 08:15:30;;;;;;;57.60;22.33;;;;;;;;;;5009096;28;20566;-85
2021/12/23 08:17:58;;;;;;;62.73;22.73;;;;;;;;;;5005602;28;20503;-86
2021/12/23 08:20:26;;;;;;;57.30;22.20;;;;;;;;;;5009942;28;20494;-85
2021/12/23 08:22:53;;;;;;;61.43;23.13;;;;;;;;;;5009457;28;20486;-86
2021/12/23 08:25:22;;;;;;;58.43;22.47;;;;;;;;;;5012665;28;20482;-85
2021/12/23 08:27:50;;;;;;;66.43;24.63;;;;;;;;;;5012296;28;20486;-85
2021/12/23 08:30:18;;;;;;;58.10;24.43;;;;;;;;;;5010024;28;20526;-86
2021/12/23 08:32:45;;;;;;;58.67;23.37;;;;;;;;;;5009605;28;20973;-87
2021/12/23 08:35:13;;;;;;;62.30;24.50;;;;;;;;;;5008630;28;20609;-87
2021/12/23 08:37:45;;;;;;;63.20;24.63;;;;;;;;;;5009063;28;20589;-86
2021/12/23 08:40:13;;;;;;;63.70;24.67;;;;;;;;;;5011245;28;20489;-86
2021/12/23 08:42:40;;;;;;;60.40;23.17;;;;;;;;;;5005922;28;20877;-86
2021/12/23 08:45:08;;;;;;;62.13;23.87;;;;;;;;;;5005552;28;20539;-87
2021/12/23 08:47:35;;;;;;;66.03;24.70;;;;;;;;;;5011093;28;20502;-85
2021/12/23 08:50:03;;;;;;;63.83;23.53;;;;;;;;;;5008112;28;20557;-86
2021/12/23 08:52:30;;;;;;;64.53;24.53;;;;;;;;;;5005733;28;20638;-83
2021/12/23 08:54:59;;;;;;;64.47;23.27;;;;;;;;;;5004324;28;20590;-83
2021/12/23 08:57:26;;;;;;;60.47;23.10;;;;;;;;;;5009397;28;21085;-86
2021/12/23 08:59:53;;;;;;;68.43;24.63;;;;;;;;;;5012845;28;20502;-84
2021/12/23 09:02:20;;;;;;;59.03;23.23;;;;;;;;;;5011531;28;21008;-85
2021/12/23 09:04:47;;;;;;;64.43;22.87;;;;;;;;;;5012902;28;20459;-84
2021/12/23 09:07:15;;;;;;;55.70;21.97;;;;;;;;;;5006589;28;20510;-85
2021/12/23 09:09:46;;;;;;;56.03;22.13;;;;;;;;;;5009602;28;20455;-85
2021/12/23 09:12:14;;;;;;;59.53;23.33;;;;;;;;;;5010023;28;20459;-85
2021/12/23 09:14:54;;;;;;;54.63;23.50;;;;;;;;;;5012603;28;20482;-83
2021/12/23 09:17:22;;;;;;;60.10;23.03;;;;;;;;;;5008502;28;20475;-83
2021/12/23 09:19:49;;;;;;;52.80;21.37;;;;;;;;;;5009126;28;20856;-86
2021/12/23 09:22:16;;;;;;;62.73;24.57;;;;;;;;;;5009422;28;20534;-84
2021/12/23 09:24:46;;;;;;;67.33;24.33;;;;;;;;;;5009210;28;20483;-85
2021/12/23 09:27:27;;;;;;;63.50;23.60;;;;;;;;;;5005059;28;20483;-85
2021/12/23 09:32:51;;;;;;;59.07;23.07;;;;;;;;;;5003429;28;20465;-86
2021/12/23 09:35:20;;;;;;;57.37;23.87;;;;;;;;;;5004958;28;20478;-85
2021/12/23 09:37:47;;;;;;;67.53;24.97;;;;;;;;;;5003271;28;20946;-85
2021/12/23 09:40:14;;;;;;;54.27;22.17;;;;;;;;;;5003298;28;20501;-84
2021/12/23 09:42:44;;;;;;;57.60;22.63;;;;;;;;;;5006521;28;20541;-86
2021/12/23 09:45:12;;;;;;;58.07;22.73;;;;;;;;;;5003098;28;20460;-81
2021/12/23 09:47:41;;;;;;;62.40;24.67;;;;;;;;;;5005318;28;20475;-80
2021/12/23 09:50:13;;;;;;;62.43;24.43;;;;;;;;;;5006554;28;20555;-81
2021/12/23 09:52:43;;;;;;;63.40;24.43;;;;;;;;;;5003581;28;20459;-81
2021/12/23 09:55:11;;;;;;;66.07;23.37;;;;;;;;;;5009897;28;20853;-81
2021/12/23 09:57:39;;;;;;;63.33;24.57;;;;;;;;;;5005582;28;21081;-80
2021/12/23 10:00:11;;;;;;;62.00;24.60;;;;;;;;;;5004301;28;20523;-81
2021/12/23 10:02:43;;;;;;;66.30;23.40;;;;;;;;;;5007926;28;20819;-81
2021/12/23 10:05:12;;;;;;;61.87;23.63;;;;;;;;;;5003793;28;20444;-80
2021/12/23 10:07:41;;;;;;;63.33;24.57;;;;;;;;;;5009612;28;20483;-81
2021/12/23 10:10:14;;;;;;;59.97;23.67;;;;;;;;;;5003665;28;20463;-83
2021/12/23 10:27:48;;;;;;;65.27;23.80;;;;;;;;;;5008220;28;20959;-80
2021/12/23 10:30:19;;;;;;;60.97;23.03;;;;;;;;;;5010038;28;20435;-81
2021/12/23 10:38:36;;;;;;;60.20;23.07;;;;;;;;;;5014197;28;20484;-80
2021/12/23 10:41:05;;;;;;;63.30;24.23;;;;;;;;;;5016938;28;20521;-81
2021/12/23 10:43:33;;;;;;;66.80;23.73;;;;;;;;;;5018268;28;20502;-80
2021/12/23 10:46:02;;;;;;;64.20;24.67;;;;;;;;;;5015232;28;20885;-80
2021/12/23 10:48:33;;;;;;;61.83;24.33;;;;;;;;;;5018128;28;20574;-80
2021/12/23 10:51:05;;;;;;;67.57;26.10;;;;;;;;;;5016566;28;20459;-80
2021/12/23 10:53:54;;;;;;;64.50;25.27;;;;;;;;;;5019774;28;20478;-80
2021/12/23 10:59:10;;;;;;;65.30;24.03;;;;;;;;;;5016078;28;20615;-80
2021/12/23 11:01:40;;;;;;;58.50;22.77;;;;;;;;;;5021288;28;20749;-80
2021/12/23 11:04:09;;;;;;;62.87;24.53;;;;;;;;;;5017447;28;20443;-80
2021/12/23 11:06:42;;;;;;;62.17;24.87;;;;;;;;;;5021216;28;20482;-80
2021/12/23 11:09:35;;;;;;;61.93;24.50;;;;;;;;;;5016091;28;20486;-80
2021/12/23 11:27:22;;;;;;;61.17;24.20;;;;;;;;;;5022090;28;20460;-80
2021/12/23 11:37:51;;;;;;;60.50;22.83;;;;;;;;;;5017234;28;20230;-81
2021/12/23 11:40:37;;;;;;;61.57;24.50;;;;;;;;;;5015395;28;20995;-81
2021/12/23 11:43:27;;;;;;;59.73;24.30;;;;;;;;;;5017397;28;20558;-80
2021/12/23 11:45:55;;;;;;;59.20;23.23;;;;;;;;;;5013331;28;20197;-80
2021/12/23 11:48:22;;;;;;;61.03;23.73;;;;;;;;;;5011858;28;21301;-80
2021/12/23 11:51:06;;;;;;;60.73;23.27;;;;;;;;;;5012814;28;20525;-80
2021/12/23 11:53:35;;;;;;;61.13;24.83;;;;;;;;;;5015276;28;20218;-80
2021/12/23 11:56:04;;;;;;;59.03;24.50;;;;;;;;;;5010653;28;20224;-80
2021/12/23 11:58:32;;;;;;;60.63;24.00;;;;;;;;;;5011215;28;20520;-80
2021/12/23 12:01:06;;;;;;;56.77;22.97;;;;;;;;;;5011629;28;20204;-81
2021/12/23 12:03:38;;;;;;;57.83;23.83;;;;;;;;;;5012903;28;20266;-81
2021/12/23 12:06:16;;;;;;;55.80;22.97;;;;;;;;;;5012508;28;20192;-80
2021/12/23 12:08:45;;;;;;;54.63;23.80;;;;;;;;;;5013413;28;20307;-81
2021/12/23 12:11:30;;;;;;;57.33;23.63;;;;;;;;;;5020325;28;20239;-80
2021/12/23 12:13:57;;;;;;;56.23;22.03;;;;;;;;;;5010803;28;20196;-81
2021/12/23 12:16:32;;;;;;;58.60;24.47;;;;;;;;;;5014617;28;20582;-81
2021/12/23 12:18:59;;;;;;;55.60;23.53;;;;;;;;;;5015198;28;20307;-81
2021/12/23 12:21:31;;;;;;;55.30;22.90;;;;;;;;;;5017778;28;20262;-81
2021/12/23 12:24:13;;;;;;;58.60;24.47;;;;;;;;;;5014673;28;20463;-81
2021/12/23 12:26:54;;;;;;;54.80;22.70;;;;;;;;;;5015359;28;20239;-81
2021/12/23 12:29:26;;;;;;;56.23;23.47;;;;;;;;;;5011445;28;20458;-81
2021/12/23 12:31:53;;;;;;;55.27;24.80;;;;;;;;;;5014417;28;20441;-80
2021/12/23 12:34:20;;;;;;;65.67;26.20;;;;;;;;;;5015630;28;20538;-81
2021/12/23 12:36:49;;;;;;;65.00;25.53;;;;;;;;;;5011525;28;20546;-81
2021/12/23 12:39:25;;;;;;;59.27;24.83;;;;;;;;;;5013143;28;20226;-81
2021/12/23 12:42:00;;;;;;;60.90;24.30;;;;;;;;;;5011978;28;20483;-81
2021/12/23 12:44:36;;;;;;;61.00;24.10;;;;;;;;;;5011993;28;20470;-81
2021/12/23 12:47:11;;;;;;;58.20;24.10;;;;;;;;;;5013739;28;20209;-81
2021/12/23 12:49:41;;;;;;;61.07;24.03;;;;;;;;;;5015645;28;20216;-80
2021/12/23 12:52:13;;;;;;;60.53;23.50;;;;;;;;;;5009304;28;20515;-80
2021/12/23 12:54:48;;;;;;;56.43;24.47;;;;;;;;;;5012817;28;20215;-81
2021/12/23 12:57:16;;;;;;;63.70;24.20;;;;;;;;;;5010473;28;20291;-81
2021/12/23 12:59:44;;;;;;;59.73;24.13;;;;;;;;;;5012858;28;20694;-80
2021/12/23 13:02:26;;;;;;;55.70;24.33;;;;;;;;;;5010203;28;20640;-80
2021/12/23 13:04:57;;;;;;;64.80;25.63;;;;;;;;;;5015928;28;21010;-81
2021/12/23 13:07:26;;;;;;;56.77;23.73;;;;;;;;;;5012780;28;20483;-81
2021/12/23 13:09:59;;;;;;;55.70;23.40;;;;;;;;;;5012720;28;20247;-79
2021/12/23 13:12:30;;;;;;;57.73;24.20;;;;;;;;;;5014108;28;20215;-81
2021/12/23 13:15:16;;;;;;;54.57;22.97;;;;;;;;;;5011678;28;20275;-81
2021/12/23 13:17:48;;;;;;;58.53;22.70;;;;;;;;;;5011104;28;20221;-81
2021/12/23 13:20:15;;;;;;;58.57;24.33;;;;;;;;;;5015087;28;20452;-81
2021/12/23 13:22:43;;;;;;;56.33;24.10;;;;;;;;;;5016125;28;20227;-79
2021/12/23 13:25:12;;;;;;;59.57;23.70;;;;;;;;;;5017392;28;20205;-79
2021/12/23 13:27:40;;;;;;;63.10;25.47;;;;;;;;;;5016473;28;20224;-81
2021/12/23 13:30:10;;;;;;;57.97;23.27;;;;;;;;;;5013464;28;20518;-80
2021/12/23 13:32:38;;;;;;;55.53;22.70;;;;;;;;;;5019430;28;20216;-80
2021/12/23 13:35:10;;;;;;;60.90;23.97;;;;;;;;;;5017951;28;20969;-79
2021/12/23 13:37:37;;;;;;;58.87;23.10;;;;;;;;;;5023820;28;20235;-80
2021/12/23 13:40:04;;;;;;;60.40;24.00;;;;;;;;;;5016551;28;20471;-80
2021/12/23 13:42:39;;;;;;;56.20;22.90;;;;;;;;;;5016059;28;20463;-80
2021/12/23 13:45:06;;;;;;;57.90;23.37;;;;;;;;;;5014424;28;20921;-80
2021/12/23 13:47:35;;;;;;;57.00;24.00;;;;;;;;;;5012806;28;20510;-80
2021/12/23 13:50:02;;;;;;;63.27;24.13;;;;;;;;;;5020504;28;20331;-80
2021/12/23 13:52:31;;;;;;;58.33;25.03;;;;;;;;;;5014011;28;20447;-80
2021/12/23 13:54:59;;;;;;;65.87;24.93;;;;;;;;;;5024217;28;20250;-80
2021/12/23 13:57:28;;;;;;;66.30;25.23;;;;;;;;;;5023387;28;20525;-80
2021/12/23 13:59:56;;;;;;;57.00;22.53;;;;;;;;;;5028949;28;20447;-80
2021/12/23 14:02:25;;;;;;;59.73;23.87;;;;;;;;;;5024241;28;20209;-80
2021/12/23 14:04:53;;;;;;;62.10;24.73;;;;;;;;;;5028970;28;20246;-80
2021/12/23 14:07:25;;;;;;;56.23;23.57;;;;;;;;;;5028460;28;20467;-79
2021/12/23 14:09:54;;;;;;;58.93;23.43;;;;;;;;;;5030934;28;20466;-80
2021/12/23 14:12:22;;;;;;;59.23;23.37;;;;;;;;;;5031196;28;20458;-79
2021/12/23 14:14:59;;;;;;;57.40;22.77;;;;;;;;;;5025101;28;20444;-79
2021/12/23 14:17:31;;;;;;;61.93;24.23;;;;;;;;;;5025665;28;20509;-79
2021/12/23 14:23:12;;;;;;;59.83;24.03;;;;;;;;;;5015758;28;20451;-79
2021/12/23 14:23:12;;;;;;;52.03;22.30;;;;;;;;;;5018020;28;20834;-80
2021/12/23 14:25:41;;;;;;;59.03;22.53;;;;;;;;;;5016496;28;20451;-82
2021/12/23 14:28:08;;;;;;;52.67;22.77;;;;;;;;;;5016073;28;20892;-80
2021/12/23 14:30:38;;;;;;;51.20;21.50;;;;;;;;;;5013370;28;20514;-80
2021/12/23 14:33:13;;;;;;;54.97;22.90;;;;;;;;;;5013142;28;20207;-82
2021/12/23 14:35:40;;;;;;;58.47;24.23;;;;;;;;;;5021601;28;20460;-80
2021/12/23 14:38:07;;;;;;;56.00;23.70;;;;;;;;;;5017251;28;20582;-80
2021/12/23 14:40:35;;;;;;;55.47;24.07;;;;;;;;;;5014818;28;20497;-80
2021/12/23 14:43:02;;;;;;;59.13;24.17;;;;;;;;;;5017337;28;20244;-81
2021/12/23 14:45:30;;;;;;;55.60;21.70;;;;;;;;;;5014232;28;20254;-80
2021/12/23 14:48:10;;;;;;;51.03;20.53;;;;;;;;;;5014070;28;20551;-80
2021/12/23 14:50:49;;;;;;;57.53;23.00;;;;;;;;;;5010861;28;21690;-81
2021/12/23 14:53:20;;;;;;;53.93;21.97;;;;;;;;;;5012998;28;20460;-81
2021/12/23 14:55:55;;;;;;;56.47;22.80;;;;;;;;;;5011715;28;20239;-80
2021/12/23 14:58:22;;;;;;;52.17;21.20;;;;;;;;;;5010920;28;20259;-80
2021/12/23 15:00:50;;;;;;;52.00;21.90;;;;;;;;;;5014547;28;20287;-80
2021/12/23 15:03:19;;;;;;;55.03;22.37;;;;;;;;;;5008731;28;20237;-80
2021/12/23 15:05:48;;;;;;;49.77;22.87;;;;;;;;;;5010640;28;20267;-80
2021/12/23 15:08:19;;;;;;;50.30;21.37;;;;;;;;;;5009748;28;20252;-81
2021/12/23 15:10:47;;;;;;;57.73;24.07;;;;;;;;;;5011779;28;20221;-80
2021/12/23 15:13:22;;;;;;;59.70;23.23;;;;;;;;;;5016330;28;20247;-79
2021/12/23 15:16:08;;;;;;;56.27;22.53;;;;;;;;;;5017364;28;20196;-80
2021/12/23 15:18:42;;;;;;;61.07;24.37;;;;;;;;;;5011888;28;20228;-81
2021/12/23 15:21:18;;;;;;;69.80;26.07;;;;;;;;;;5015279;28;20831;-81